Grizzly Air Cargo 5355


PAVD
Valdez Pioneer Field Airport
Valdez, Alaska, US
PANC
Ted Stevens Anchorage International Airport
Anchorage, Alaska, US

Activity Log

Date Flight Route Aircraft Duration
05/01/2020 GRZ5355 JMAAL3 NAKED YESKA YESKA6 SF34 1h 08m
09/26/2019 GRZ555 FJORD1 YESKA YESKA6 SF34 0h 33m

Route Details

Aircraft Information
Primary: Saab 340AF
Backup: Not Available
Route Data
Distance: 120nm
Sched. Duration: 0h 60m
Avg. Duration: 0h 70m (+11m)
Times Flown: 2
Recm'd Route: FJORD1 YESKA YESKA6
Planned Altitude: 16,000ft
Origin Wx: PAVD 080556Z 07004KT 10SM FEW001 BKN055 OVC070 11/08 A2973 RMK AO2 SLP067 60000 T01110078 10150 20111 53026
Dest. Wx: PANC 080553Z VRB06KT 10SM FEW055 BKN085 BKN250 16/09 A2960 RMK AO2 SLP026 T01560089 10194 20156 51023
Notes:

Financial History
Total Freight: 12,835lbs
Average Load: 6,418lbs/flt
Fuel Used: 1,299lbs
Avg. Fuel Used: 650lbs/flt
Fuel Expense: $1,429
Avg. Fuel Expense: $714
Avg. Fuel Cost: $1.10/lbs
Total Gross Income: $25,841
Pilot Pay: $298
Total Expenses: $2,895
Total Revenue: $21,311
Average Revenue: $12,920.43